createdAt,value
2022-08-17T00:00:43.193Z,19.45
2022-08-17T00:03:42.974Z,19.43
2022-08-17T00:06:44.942Z,19.38
2022-08-17T00:09:47.750Z,19.36
2022-08-17T00:12:49.580Z,19.32
2022-08-17T00:15:52.130Z,19.27
2022-08-17T00:19:07.973Z,19.24
2022-08-17T00:22:33.716Z,19.16
2022-08-17T00:25:32.291Z,19.11
2022-08-17T00:28:34.285Z,19.08
2022-08-17T00:31:37.123Z,19.07
2022-08-17T00:34:39.283Z,19.03
2022-08-17T00:37:40.962Z,19.00
2022-08-17T00:40:47.051Z,19.00
2022-08-17T00:43:53.288Z,19.03
2022-08-17T00:46:55.164Z,18.97
2022-08-17T00:49:56.835Z,18.94
2022-08-17T00:52:58.827Z,18.90
2022-08-17T00:56:03.197Z,18.86
2022-08-17T00:59:08.965Z,18.82
2022-08-17T01:02:15.021Z,18.77
2022-08-17T01:05:20.752Z,18.75
2022-08-17T01:08:27.122Z,18.70
2022-08-17T01:11:30.153Z,18.66
2022-08-17T01:14:32.065Z,18.63
2022-08-17T01:17:34.434Z,18.62
2022-08-17T01:20:48.150Z,18.61
2022-08-17T01:23:50.505Z,18.57
2022-08-17T01:26:52.167Z,18.54
2022-08-17T01:29:59.560Z,18.50
2022-08-17T01:33:01.270Z,18.47
2022-08-17T01:36:04.196Z,18.54
2022-08-17T01:39:09.501Z,18.42
2022-08-17T01:42:23.404Z,18.22
2022-08-17T01:45:29.173Z,18.09
2022-08-17T01:48:35.878Z,18.01
2022-08-17T01:51:38.664Z,17.92
2022-08-17T01:54:43.490Z,17.90
2022-08-17T01:57:45.646Z,17.83
2022-08-17T02:01:00.934Z,17.84
2022-08-17T02:04:05.706Z,17.82
2022-08-17T02:07:07.329Z,17.79
2022-08-17T02:10:19.881Z,17.80
2022-08-17T02:13:22.183Z,17.77
2022-08-17T02:16:23.809Z,17.75
2022-08-17T02:19:25.490Z,17.75
2022-08-17T02:22:27.702Z,17.73
2022-08-17T02:25:32.515Z,17.74
2022-08-17T02:28:34.338Z,17.72
2022-08-17T02:31:35.935Z,17.71
2022-08-17T02:34:37.613Z,17.67
2022-08-17T02:37:42.001Z,17.66
2022-08-17T02:40:43.707Z,17.64
2022-08-17T02:43:46.968Z,17.62
2022-08-17T02:46:48.597Z,17.60
2022-08-17T02:49:55.464Z,17.58
2022-08-17T02:53:02.250Z,17.60
2022-08-17T02:56:04.620Z,17.58
2022-08-17T02:59:06.266Z,17.53
2022-08-17T03:02:10.607Z,17.52
2022-08-17T03:05:14.583Z,17.49
2022-08-17T03:08:16.425Z,17.48
2022-08-17T03:11:18.081Z,17.45
2022-08-17T03:14:19.793Z,17.42
2022-08-17T03:17:27.985Z,17.43
2022-08-17T03:20:32.162Z,17.49
2022-08-17T03:23:33.947Z,17.47
2022-08-17T03:26:36.114Z,17.44
2022-08-17T03:29:37.778Z,17.41
2022-08-17T03:32:43.021Z,17.37
2022-08-17T03:35:44.780Z,17.35
2022-08-17T03:38:46.394Z,17.29
2022-08-17T03:41:48.083Z,17.27
2022-08-17T03:44:50.724Z,17.21
2022-08-17T03:48:11.150Z,17.17
2022-08-17T03:51:42.586Z,17.14
2022-08-17T03:55:03.787Z,17.12
2022-08-17T03:58:05.429Z,17.08
2022-08-17T04:01:07.782Z,17.06
2022-08-17T04:04:09.838Z,17.04
2022-08-17T04:07:11.952Z,17.01
2022-08-17T04:10:14.113Z,17.01
2022-08-17T04:13:15.832Z,17.00
2022-08-17T04:16:26.904Z,16.97
2022-08-17T04:19:28.457Z,16.91
2022-08-17T04:22:34.282Z,16.88
2022-08-17T04:25:38.475Z,16.89
2022-08-17T04:28:41.941Z,16.90
2022-08-17T04:31:44.603Z,16.89
2022-08-17T04:34:46.217Z,16.88
2022-08-17T04:37:47.995Z,16.90
2022-08-17T04:41:08.666Z,16.92
2022-08-17T04:44:11.543Z,16.99
2022-08-17T04:47:14.012Z,17.03
2022-08-17T04:50:15.655Z,17.07
2022-08-17T04:53:19.547Z,17.15
2022-08-17T04:56:21.610Z,17.21
2022-08-17T04:59:23.385Z,17.20
2022-08-17T05:02:24.990Z,17.22
2022-08-17T05:05:33.971Z,17.30
2022-08-17T05:08:35.610Z,17.32
2022-08-17T05:11:37.821Z,17.38
2022-08-17T05:14:46.520Z,17.39
2022-08-17T05:17:48.113Z,17.43
2022-08-17T05:20:49.834Z,17.51
2022-08-17T05:23:56.392Z,17.59
2022-08-17T05:27:02.582Z,17.66
2022-08-17T05:30:08.379Z,17.74
2022-08-17T05:33:20.850Z,17.87
2022-08-17T05:36:41.622Z,18.07
2022-08-17T05:39:44.109Z,18.33
2022-08-17T05:42:45.825Z,18.75
2022-08-17T05:46:06.079Z,19.21
2022-08-17T05:49:08.526Z,19.25
2022-08-17T05:52:38.510Z,19.16
2022-08-17T05:55:56.025Z,19.02
2022-08-17T05:59:25.139Z,18.94
2022-08-17T06:02:47.868Z,18.89
2022-08-17T06:06:32.168Z,18.83
2022-08-17T06:09:44.583Z,18.81
2022-08-17T06:12:46.117Z,18.96
2022-08-17T06:16:31.160Z,19.33
2022-08-17T06:19:50.897Z,19.92
2022-08-17T06:22:59.505Z,20.00
2022-08-17T06:26:10.888Z,19.98
2022-08-17T06:29:50.805Z,19.98
2022-08-17T06:32:55.177Z,19.96
2022-08-17T06:36:25.280Z,20.03
2022-08-17T06:39:37.706Z,20.08
2022-08-17T06:42:54.738Z,20.20
2022-08-17T06:46:16.733Z,20.43
2022-08-17T06:49:21.971Z,20.72
2022-08-17T06:52:45.507Z,20.90
2022-08-17T06:55:59.990Z,21.00
2022-08-17T06:59:03.247Z,21.04
2022-08-17T07:02:09.051Z,21.08
2022-08-17T07:05:14.575Z,21.13
2022-08-17T07:08:54.714Z,21.23
2022-08-17T07:12:10.019Z,21.36
2022-08-17T07:15:16.598Z,21.56
2022-08-17T07:18:18.325Z,21.85
2022-08-17T07:21:27.064Z,22.11
2022-08-17T07:24:59.549Z,22.34
2022-08-17T07:28:07.016Z,22.54
2022-08-17T07:31:09.407Z,22.77
2022-08-17T07:34:16.102Z,23.08
2022-08-17T07:37:19.308Z,23.39
2022-08-17T07:40:33.673Z,23.66
2022-08-17T07:43:36.662Z,23.86
2022-08-17T07:47:07.991Z,24.12
2022-08-17T07:50:28.901Z,24.39
2022-08-17T07:53:31.917Z,24.54
2022-08-17T07:56:37.878Z,24.58
2022-08-17T07:59:43.203Z,24.58
2022-08-17T08:02:58.958Z,24.64
2022-08-17T08:06:03.347Z,24.71
2022-08-17T08:09:04.970Z,24.83
2022-08-17T08:12:32.715Z,25.07
2022-08-17T08:15:39.730Z,25.31
2022-08-17T08:18:55.015Z,25.52
2022-08-17T08:22:07.631Z,25.62
2022-08-17T08:25:24.858Z,25.70
2022-08-17T08:28:34.565Z,25.74
2022-08-17T08:31:48.442Z,25.77
2022-08-17T08:35:07.230Z,25.76
2022-08-17T08:38:24.755Z,25.78
2022-08-17T08:41:48.218Z,25.80
2022-08-17T08:45:05.506Z,25.77
2022-08-17T08:48:53.344Z,25.73
2022-08-17T08:51:59.670Z,25.68
2022-08-17T08:55:26.067Z,25.64
2022-08-17T08:58:43.815Z,25.64
2022-08-17T09:02:04.095Z,25.72
2022-08-17T09:05:26.986Z,25.81
2022-08-17T09:08:31.803Z,25.96
2022-08-17T09:12:02.302Z,26.18
2022-08-17T09:15:10.916Z,26.47
2022-08-17T09:19:00.336Z,26.72
2022-08-17T09:22:07.696Z,26.89
2022-08-17T09:25:12.209Z,27.13
2022-08-17T09:28:20.299Z,27.27
2022-08-17T09:31:33.286Z,27.45
2022-08-17T09:34:48.382Z,27.55
2022-08-17T09:37:50.301Z,27.57
2022-08-17T09:41:07.471Z,27.64
2022-08-17T09:44:36.133Z,27.81
2022-08-17T09:47:45.906Z,27.83
2022-08-17T09:51:05.224Z,27.94
2022-08-17T09:54:38.474Z,28.13
2022-08-17T09:57:44.119Z,28.27
2022-08-17T10:01:01.849Z,28.33
2022-08-17T10:04:17.721Z,28.46
2022-08-17T10:07:28.960Z,28.46
2022-08-17T10:10:52.499Z,28.44
2022-08-17T10:14:37.282Z,28.45
2022-08-17T10:17:46.802Z,28.47
2022-08-17T10:21:17.501Z,28.32
2022-08-17T10:25:21.248Z,28.24
2022-08-17T10:28:20.052Z,28.44
2022-08-17T10:31:35.692Z,28.51
2022-08-17T10:35:03.489Z,28.46
2022-08-17T10:38:17.219Z,28.44
2022-08-17T10:41:26.912Z,28.31
2022-08-17T10:44:51.468Z,28.23
2022-08-17T10:48:04.848Z,28.18
2022-08-17T10:51:36.405Z,28.12
2022-08-17T10:54:49.052Z,28.10
2022-08-17T10:57:51.142Z,28.05
2022-08-17T11:00:53.361Z,27.93
2022-08-17T11:03:58.366Z,27.93
2022-08-17T11:07:25.803Z,27.89
2022-08-17T11:11:03.006Z,27.80
2022-08-17T11:14:33.856Z,27.80
2022-08-17T11:17:49.854Z,27.82
2022-08-17T11:21:09.503Z,27.83
2022-08-17T11:24:30.615Z,27.87
2022-08-17T11:27:36.548Z,27.85
2022-08-17T11:30:59.403Z,27.81
2022-08-17T11:34:05.432Z,27.79
2022-08-17T11:37:31.052Z,27.78
2022-08-17T11:40:35.798Z,27.77
2022-08-17T11:43:55.897Z,27.79
2022-08-17T11:47:36.852Z,27.82
2022-08-17T11:51:03.917Z,27.83
2022-08-17T11:57:41.504Z,27.95
2022-08-17T12:00:46.043Z,27.99
2022-08-17T12:03:55.231Z,28.04
2022-08-17T12:07:06.683Z,28.14
2022-08-17T12:10:12.219Z,28.15
2022-08-17T12:13:16.357Z,28.17
2022-08-17T12:16:20.628Z,28.14
2022-08-17T12:19:23.774Z,28.09
2022-08-17T12:22:33.206Z,28.12
2022-08-17T12:25:56.675Z,28.19
2022-08-17T12:29:09.374Z,28.31
2022-08-17T12:32:21.924Z,28.32
2022-08-17T12:35:35.442Z,28.33
2022-08-17T12:38:38.195Z,28.35
2022-08-17T12:41:43.302Z,28.34
2022-08-17T12:44:50.309Z,28.40
2022-08-17T12:48:07.822Z,28.46
2022-08-17T12:51:12.308Z,28.46
2022-08-17T12:54:31.515Z,28.50
2022-08-17T12:57:47.635Z,28.49
2022-08-17T13:00:56.237Z,28.50
2022-08-17T13:04:00.150Z,28.44
2022-08-17T13:07:01.815Z,28.42
2022-08-17T13:10:04.293Z,28.43
2022-08-17T13:13:26.007Z,28.47
2022-08-17T13:16:33.328Z,28.52
2022-08-17T13:19:38.978Z,28.58
2022-08-17T13:22:44.370Z,28.66
2022-08-17T13:25:54.124Z,28.73
2022-08-17T13:28:55.772Z,28.73
2022-08-17T13:32:17.982Z,28.74
2022-08-17T13:35:39.455Z,28.67
2022-08-17T13:38:49.596Z,28.71
2022-08-17T13:41:56.090Z,28.71
2022-08-17T13:44:59.923Z,28.67
2022-08-17T13:48:07.600Z,28.66
2022-08-17T13:51:24.732Z,28.61
2022-08-17T13:54:33.201Z,28.52
2022-08-17T13:57:36.148Z,28.38
2022-08-17T14:00:37.852Z,28.23
2022-08-17T14:03:39.471Z,28.20
2022-08-17T14:07:19.737Z,28.19
2022-08-17T14:10:21.659Z,28.24
2022-08-17T14:13:23.472Z,28.31
2022-08-17T14:16:25.206Z,28.39
2022-08-17T14:19:26.848Z,28.42
2022-08-17T14:22:31.801Z,28.36
2022-08-17T14:25:33.471Z,28.26
2022-08-17T14:28:36.388Z,28.12
2022-08-17T14:31:39.002Z,27.99
2022-08-17T14:34:40.803Z,27.87
2022-08-17T14:37:44.823Z,27.74
2022-08-17T14:40:48.231Z,27.48
2022-08-17T14:43:51.445Z,27.09
2022-08-17T14:46:53.142Z,26.77
2022-08-17T14:49:54.865Z,26.49
2022-08-17T14:52:58.164Z,26.28
2022-08-17T14:56:01.696Z,26.13
2022-08-17T14:59:07.701Z,25.95
2022-08-17T15:02:11.004Z,25.89
2022-08-17T15:05:15.071Z,25.78
2022-08-17T15:08:17.879Z,25.73
2022-08-17T15:11:19.784Z,25.56
2022-08-17T15:14:22.452Z,25.38
2022-08-17T15:17:24.158Z,25.25
2022-08-17T15:20:29.013Z,25.14
2022-08-17T15:23:31.812Z,25.06
2022-08-17T15:26:33.541Z,24.95
2022-08-17T15:29:35.144Z,24.90
2022-08-17T15:32:40.156Z,24.85
2022-08-17T15:35:42.843Z,24.79
2022-08-17T15:38:45.972Z,24.73
2022-08-17T15:41:58.348Z,24.60
2022-08-17T15:45:13.328Z,24.35
2022-08-17T15:48:15.009Z,24.22
2022-08-17T15:51:18.756Z,24.19
2022-08-17T15:54:22.444Z,24.15
2022-08-17T15:57:25.929Z,24.23
2022-08-17T16:00:29.268Z,24.26
2022-08-17T16:03:58.182Z,24.39
2022-08-17T16:06:54.362Z,24.50
2022-08-17T16:09:56.273Z,24.58
2022-08-17T16:12:58.692Z,24.58
2022-08-17T16:16:00.305Z,24.55
2022-08-17T16:19:01.938Z,24.55
2022-08-17T16:22:05.620Z,24.53
2022-08-17T16:25:11.223Z,24.54
2022-08-17T16:28:15.414Z,24.53
2022-08-17T16:31:17.392Z,24.52
2022-08-17T16:34:19.146Z,24.50
2022-08-17T16:37:20.721Z,24.51
2022-08-17T16:40:25.945Z,24.53
2022-08-17T16:43:29.312Z,24.54
2022-08-17T16:46:31.226Z,24.55
2022-08-17T16:49:37.332Z,24.55
2022-08-17T16:52:40.691Z,24.59
2022-08-17T16:55:42.864Z,24.61
2022-08-17T16:58:45.002Z,24.65
2022-08-17T17:01:47.785Z,24.65
2022-08-17T17:05:15.743Z,24.71
2022-08-17T17:08:44.583Z,24.70
2022-08-17T17:11:50.927Z,24.71
2022-08-17T17:14:53.312Z,24.69
2022-08-17T17:18:01.796Z,24.66
2022-08-17T17:21:14.122Z,24.62
2022-08-17T17:24:26.159Z,24.58
2022-08-17T17:27:38.039Z,24.52
2022-08-17T17:31:08.167Z,24.47
2022-08-17T17:34:16.559Z,24.45
2022-08-17T17:37:26.151Z,24.43
2022-08-17T17:40:47.265Z,24.35
2022-08-17T17:44:02.717Z,24.19
2022-08-17T17:47:05.323Z,24.11
2022-08-17T17:50:08.037Z,24.04
2022-08-17T17:53:26.104Z,24.06
2022-08-17T17:56:55.687Z,24.00
2022-08-17T18:00:12.705Z,23.93
2022-08-17T18:03:20.445Z,23.83
2022-08-17T18:06:21.929Z,23.79
2022-08-17T18:09:34.016Z,23.78
2022-08-17T18:13:08.018Z,23.78
2022-08-17T18:16:14.025Z,23.75
2022-08-17T18:19:21.420Z,23.71
2022-08-17T18:22:23.696Z,23.64
2022-08-17T18:25:44.594Z,23.58
2022-08-17T18:28:50.744Z,23.52
2022-08-17T18:32:13.684Z,23.42
2022-08-17T18:35:18.339Z,23.32
2022-08-17T18:38:22.253Z,23.22
2022-08-17T18:41:30.342Z,23.17
2022-08-17T18:44:38.101Z,23.11
2022-08-17T18:47:55.619Z,23.02
2022-08-17T18:51:26.338Z,22.96
2022-08-17T18:55:11.549Z,22.83
2022-08-17T18:58:18.229Z,22.71
2022-08-17T19:01:21.347Z,22.58
2022-08-17T19:04:32.769Z,22.51
2022-08-17T19:07:43.334Z,22.50
2022-08-17T19:10:48.621Z,22.37
2022-08-17T19:13:56.938Z,22.28
2022-08-17T19:17:09.013Z,22.17
2022-08-17T19:20:19.887Z,22.07
2022-08-17T19:23:36.043Z,21.93
2022-08-17T19:26:54.826Z,21.86
2022-08-17T19:30:08.200Z,21.75
2022-08-17T19:33:10.242Z,21.66
2022-08-17T19:36:22.461Z,21.62
2022-08-17T19:39:59.276Z,21.52
2022-08-17T19:43:06.906Z,21.45
2022-08-17T19:46:42.975Z,21.37
2022-08-17T19:50:10.278Z,21.26
2022-08-17T19:53:47.795Z,21.22
2022-08-17T19:57:05.582Z,21.19
2022-08-17T20:00:18.544Z,21.10
2022-08-17T20:03:34.906Z,21.01
2022-08-17T20:06:40.398Z,20.93
2022-08-17T20:10:05.666Z,20.89
2022-08-17T20:13:16.910Z,20.85
2022-08-17T20:16:20.125Z,20.76
2022-08-17T20:19:29.757Z,20.72
2022-08-17T20:22:52.048Z,20.70
2022-08-17T20:26:09.436Z,20.64
2022-08-17T20:29:14.310Z,20.63
2022-08-17T20:32:25.127Z,20.63
2022-08-17T20:35:31.190Z,20.57
2022-08-17T20:38:40.362Z,20.50
2022-08-17T20:42:04.455Z,20.41
2022-08-17T20:45:38.350Z,20.38
2022-08-17T20:48:46.426Z,20.37
2022-08-17T20:52:13.577Z,20.33
2022-08-17T20:55:33.901Z,20.25
2022-08-17T20:58:37.002Z,20.18
2022-08-17T21:01:40.567Z,20.15
2022-08-17T21:04:50.010Z,20.10
2022-08-17T21:07:59.360Z,20.08
2022-08-17T21:12:03.445Z,20.03
2022-08-17T21:15:03.768Z,19.96
2022-08-17T21:18:18.394Z,19.93
2022-08-17T21:21:29.270Z,19.89
2022-08-17T21:24:43.466Z,19.82
2022-08-17T21:28:07.208Z,19.76
2022-08-17T21:31:38.601Z,19.70
2022-08-17T21:34:44.984Z,19.68
2022-08-17T21:37:49.945Z,19.63
2022-08-17T21:40:53.194Z,19.62
2022-08-17T21:44:02.791Z,19.59
2022-08-17T21:47:24.529Z,19.59
2022-08-17T21:50:26.199Z,19.52
2022-08-17T21:53:48.140Z,19.50
2022-08-17T21:56:50.187Z,19.45
2022-08-17T22:00:05.571Z,19.46
2022-08-17T22:03:23.646Z,19.42
2022-08-17T22:06:36.166Z,19.36
2022-08-17T22:09:47.718Z,19.27
2022-08-17T22:13:06.034Z,19.23
2022-08-17T22:16:28.969Z,19.18
2022-08-17T22:19:34.891Z,19.15
2022-08-17T22:23:18.368Z,19.13
2022-08-17T22:26:22.633Z,19.11
2022-08-17T22:29:44.594Z,19.14
2022-08-17T22:32:48.411Z,19.10
2022-08-17T22:36:20.281Z,18.93
2022-08-17T22:39:23.786Z,18.71
2022-08-17T22:42:25.686Z,18.60
2022-08-17T22:45:31.116Z,18.54
2022-08-17T22:48:33.583Z,18.51
2022-08-17T22:51:36.574Z,18.46
2022-08-17T22:54:56.883Z,18.49
2022-08-17T22:58:17.788Z,18.45
2022-08-17T23:01:31.397Z,18.52
2022-08-17T23:04:37.703Z,18.48
2022-08-17T23:07:44.800Z,18.47
2022-08-17T23:10:47.725Z,18.44
2022-08-17T23:13:49.892Z,18.47
2022-08-17T23:16:51.552Z,18.49
2022-08-17T23:19:54.812Z,18.53
2022-08-17T23:22:59.575Z,18.57
2022-08-17T23:26:01.793Z,18.64
2022-08-17T23:29:07.622Z,18.68
2022-08-17T23:32:13.542Z,18.72
2022-08-17T23:35:16.684Z,18.79
2022-08-17T23:38:18.350Z,18.85
2022-08-17T23:41:23.317Z,18.94
2022-08-17T23:44:25.216Z,19.00
2022-08-17T23:47:28.612Z,19.07
2022-08-17T23:50:30.249Z,19.15
2022-08-17T23:53:34.706Z,19.16
2022-08-17T23:56:45.539Z,19.10
2022-08-17T23:59:47.296Z,19.08
